Greenfield, MA (01301)

8:30 PM EDT on August 21, 2014 (GMT -0400)
Beacon Field | Change Station
CLOSE
Current Station
Personal Weather Station
Location: Greenfield, MA
Elevation: 289 ft
Nearby Weather Stations

Elev 289 ft 42.60 °N, 72.59 °W | Updated 35 seconds ago

Overcast
Overcast
65.9 °F
Feels Like 65.9 °F
N
0.0
Wind Variable Wind from NW
Gusts 0.0 mph

Today
High -- | Low -- °F
--% Chance of Precip.
Yesterday
High -- | Low -- °F
Precip. -- in
6:03 AM 7:42 PM
Waning Crescent, 11% visible
Pressure 30.07 in
Visibility 10.0 miles
Clouds Overcast 4100 ft
Dew Point 63 °F
Humidity 89%
Rainfall 0.20 in
Snow Depth Not available.
UV 0 out of 12
Pollen 8.70 out of 12
Air Quality Not available.
Flu Activity Not available.
METAR KORE 212352Z AUTO 02005KT 10SM OVC041 18/16 A3007 RMK AO2 RAB30E42 SLP183 P0001 60001 T01780156 10217 20178 53004

More Conditions Fewer Conditions

Pressure 30.07 in
Visibility 10.0 miles
Clouds Overcast 4100 ft
Dew Point 63 °F
Humidity 89%
Rainfall 0.20 in
Snow Depth Not available.
UV 0 out of 12
Pollen 8.70 out of 12
Air Quality Not available.
Flu Activity Not available.
METAR KORE 212352Z AUTO 02005KT 10SM OVC041 18/16 A3007 RMK AO2 RAB30E42 SLP183 P0001 60001 T01780156 10217 20178 53004

More Conditions Fewer Conditions

10-Day Weather Forecast

Almanac

Astronomy

Aug. 21, 2014 Rise Set
Actual Time 6:03 AM EDT 7:42 PM EDT
Civil Twilight 5:33 AM EDT 8:12 PM EDT
Nautical Twilight 4:57 AM EDT 8:48 PM EDT
Astronomical Twilight 4:18 AM EDT 9:27 PM EDT
Moon 2:29 AM EDT (8/21) 5:11 PM EDT (8/21)
Length of Visible Light 14h 38m
Length of Day
13h 39m
Tomorrow will be 2m 40s shorter.
Waning Crescent, 11% of the Moon is Illuminated
Today
Waning Crescent
Aug 25
New
Sep 2
First Quarter
Sep 8
Full
Sep 15
Last Quarter

Today's Extremes

State Highs State Lows

Community

WunderPhotos

Upload Photos

1,746,073 photos uploaded!

Nearby

Air Quality

  Air Quality AQ Index Pollutant
Thursday Good
PM2.5
Thursday Good
OZONE
Friday Good
PM2.5
Friday Good
OZONE

Snow Depth

Station Depth Elevation
No new snow has been reported.

Earthquake Activity

City Distance Mag. Time & Date
No recent earthquake activity has been reported nearby.
Minimum magnitude displayed is 2.5.

Coastal Water Temperatures

Place Temperature
No Stations Reporting

Nearby Weather Stations